createdAt,value
2023-04-18T00:00:17.484Z,88.1095
2023-04-18T00:01:18.111Z,88.2049
2023-04-18T00:02:19.067Z,88.2464
2023-04-18T00:03:19.312Z,88.1221
2023-04-18T00:04:21.362Z,88.1939
2023-04-18T00:05:22.206Z,88.5736
2023-04-18T00:06:23.030Z,88.5796
2023-04-18T00:07:23.928Z,88.4907
2023-04-18T00:08:24.270Z,88.3207
2023-04-18T00:09:25.142Z,88.1792
2023-04-18T00:10:25.793Z,88.1411
2023-04-18T00:11:26.466Z,87.6473
2023-04-18T00:12:27.043Z,87.7777
2023-04-18T00:13:27.632Z,88.0342
2023-04-18T00:14:27.666Z,88.1017
2023-04-18T00:15:28.487Z,88.1600
2023-04-18T00:16:29.165Z,87.9974
2023-04-18T00:17:30.044Z,87.9203
2023-04-18T00:18:30.556Z,87.8917
2023-04-18T00:19:31.077Z,87.8590
2023-04-18T00:20:31.643Z,87.6908
2023-04-18T00:21:32.175Z,87.7441
2023-04-18T00:22:32.802Z,87.4528
2023-04-18T00:23:33.779Z,87.2070
2023-04-18T00:24:34.800Z,87.3312
2023-04-18T00:25:35.404Z,87.1628
2023-04-18T00:26:36.041Z,87.4063
2023-04-18T00:27:36.436Z,87.5272
2023-04-18T00:28:37.133Z,87.6877
2023-04-18T00:29:37.516Z,87.8192
2023-04-18T00:30:38.121Z,87.6711
2023-04-18T00:31:39.318Z,86.8834
2023-04-18T00:32:39.911Z,86.9749
2023-04-18T00:33:40.637Z,87.1950
2023-04-18T00:34:41.214Z,87.1767
2023-04-18T00:35:41.699Z,87.1723
2023-04-18T00:36:42.260Z,87.0772
2023-04-18T00:37:42.753Z,87.1399
2023-04-18T00:38:43.298Z,87.1496
2023-04-18T00:39:43.814Z,86.9918
2023-04-18T00:40:44.198Z,86.8695
2023-04-18T00:41:44.807Z,87.1068
2023-04-18T00:42:45.378Z,87.1454
2023-04-18T00:43:45.794Z,87.1717
2023-04-18T00:44:46.828Z,86.8522
2023-04-18T00:45:47.215Z,87.0819
2023-04-18T00:46:48.415Z,87.1991
2023-04-18T00:47:49.289Z,87.1596
2023-04-18T00:48:49.996Z,87.4935
2023-04-18T00:49:50.881Z,87.1416
2023-04-18T00:50:51.549Z,87.3172
2023-04-18T00:51:52.029Z,87.5821
2023-04-18T00:52:52.636Z,87.3991
2023-04-18T00:53:53.106Z,87.3584
2023-04-18T00:54:54.227Z,87.4149
2023-04-18T00:55:54.856Z,87.4240
2023-04-18T00:56:55.330Z,87.2297
2023-04-18T00:57:55.883Z,87.4352
2023-04-18T00:58:56.453Z,87.3331
2023-04-18T00:59:56.843Z,86.9932
2023-04-18T01:00:57.435Z,87.0880
2023-04-18T01:01:58.110Z,87.1387
2023-04-18T01:02:58.362Z,87.4168
2023-04-18T01:03:58.449Z,87.5624
2023-04-18T01:04:59.164Z,87.5843
2023-04-18T01:05:59.850Z,87.6245
2023-04-18T01:07:00.416Z,87.4354
2023-04-18T01:08:00.987Z,87.3498
2023-04-18T01:09:01.727Z,87.4245
2023-04-18T01:10:02.471Z,87.1520
2023-04-18T01:11:02.850Z,86.5717
2023-04-18T01:12:03.424Z,86.6085
2023-04-18T01:13:03.849Z,86.9412
2023-04-18T01:14:04.354Z,87.2632
2023-04-18T01:15:04.885Z,87.5928
2023-04-18T01:16:05.503Z,87.1321
2023-04-18T01:17:06.685Z,86.9940
2023-04-18T01:18:07.452Z,87.1421
2023-04-18T01:19:07.907Z,87.5876
2023-04-18T01:20:08.566Z,87.5351
2023-04-18T01:21:09.306Z,87.2824
2023-04-18T01:22:09.901Z,87.1301
2023-04-18T01:23:10.461Z,87.0489
2023-04-18T01:24:11.154Z,86.9541
2023-04-18T01:25:11.537Z,87.2007
2023-04-18T01:26:12.217Z,87.3335
2023-04-18T01:27:12.798Z,87.2563
2023-04-18T01:28:13.393Z,86.8442
2023-04-18T01:29:13.762Z,87.3837
2023-04-18T01:30:14.823Z,87.5477
2023-04-18T01:31:15.498Z,87.5909
2023-04-18T01:32:16.102Z,87.6882
2023-04-18T01:33:17.039Z,87.2471
2023-04-18T01:34:17.785Z,87.2795
2023-04-18T01:35:18.297Z,87.7458
2023-04-18T01:36:18.853Z,87.9389
2023-04-18T01:37:19.263Z,87.7008
2023-04-18T01:38:19.751Z,87.3969
2023-04-18T01:39:20.452Z,87.5487
2023-04-18T01:40:20.876Z,87.3467
2023-04-18T01:41:21.477Z,87.2577
2023-04-18T01:42:22.411Z,87.4438
2023-04-18T01:43:22.849Z,87.3123
2023-04-18T01:44:23.448Z,87.2459
2023-04-18T01:45:23.894Z,87.7279
2023-04-18T01:46:24.678Z,87.0791
2023-04-18T01:47:25.704Z,87.1160
2023-04-18T01:48:26.235Z,87.2232
2023-04-18T01:49:26.869Z,87.5234
2023-04-18T01:50:27.439Z,87.0769
2023-04-18T01:51:27.864Z,87.3015
2023-04-18T01:52:28.612Z,87.5073
2023-04-18T01:53:28.941Z,87.8070
2023-04-18T01:54:29.963Z,87.9644
2023-04-18T01:55:30.510Z,87.9165
2023-04-18T01:56:30.941Z,87.8155
2023-04-18T01:57:31.684Z,87.8291
2023-04-18T01:58:32.328Z,87.7665
2023-04-18T01:59:32.645Z,87.6295
2023-04-18T02:00:33.259Z,87.8573
2023-04-18T02:01:33.913Z,87.3973
2023-04-18T02:02:35.033Z,87.5211
2023-04-18T02:03:35.583Z,87.8633
2023-04-18T02:04:35.452Z,87.8917
2023-04-18T02:05:36.002Z,87.8894
2023-04-18T02:06:36.559Z,87.9877
2023-04-18T02:07:37.117Z,88.0456
2023-04-18T02:08:37.766Z,88.2007
2023-04-18T02:09:38.195Z,88.4295
2023-04-18T02:10:38.698Z,88.5435
2023-04-18T02:11:39.333Z,88.3551
2023-04-18T02:12:39.748Z,88.3790
2023-04-18T02:13:40.315Z,88.3751
2023-04-18T02:14:40.862Z,88.4086
2023-04-18T02:15:41.204Z,88.3800
2023-04-18T02:16:42.132Z,88.4415
2023-04-18T02:17:42.829Z,88.3220
2023-04-18T02:18:43.539Z,88.2551
2023-04-18T02:19:44.177Z,88.1887
2023-04-18T02:20:44.785Z,88.1091
2023-04-18T02:21:45.335Z,88.1191
2023-04-18T02:22:45.904Z,88.0704
2023-04-18T02:23:46.409Z,88.2204
2023-04-18T02:24:47.230Z,88.3912
2023-04-18T02:25:47.730Z,88.2379
2023-04-18T02:26:48.484Z,88.4208
2023-04-18T02:27:49.214Z,88.5944
2023-04-18T02:28:49.989Z,88.5857
2023-04-18T02:29:50.637Z,88.6027
2023-04-18T02:30:51.590Z,88.3724
2023-04-18T02:31:52.278Z,88.0863
2023-04-18T02:32:53.465Z,88.2571
2023-04-18T02:33:53.957Z,88.5843
2023-04-18T02:34:54.756Z,88.5081
2023-04-18T02:35:55.358Z,88.4925
2023-04-18T02:36:55.815Z,88.4398
2023-04-18T02:37:56.433Z,88.3387
2023-04-18T02:38:56.981Z,88.2824
2023-04-18T02:39:57.377Z,87.9870
2023-04-18T02:40:58.040Z,88.0046
2023-04-18T02:41:58.415Z,88.0757
2023-04-18T02:42:58.990Z,88.2501
2023-04-18T02:43:59.633Z,88.4251
2023-04-18T02:45:00.117Z,88.4877
2023-04-18T02:46:00.873Z,88.7725
2023-04-18T02:47:01.689Z,88.7727
2023-04-18T02:48:02.679Z,88.6507
2023-04-18T02:49:03.556Z,88.3829
2023-04-18T02:50:04.155Z,88.2659
2023-04-18T02:51:04.679Z,88.4915
2023-04-18T02:52:05.301Z,88.6779
2023-04-18T02:53:05.736Z,88.5614
2023-04-18T02:54:06.288Z,88.6767
2023-04-18T02:55:06.897Z,88.7186
2023-04-18T02:56:07.414Z,88.7028
2023-04-18T02:57:08.134Z,88.4747
2023-04-18T02:58:08.744Z,88.4309
2023-04-18T02:59:09.283Z,88.3629
2023-04-18T03:00:09.883Z,88.4100
2023-04-18T03:01:10.381Z,88.5281
2023-04-18T03:02:11.336Z,88.5602
2023-04-18T03:03:11.368Z,88.5941
2023-04-18T03:04:12.325Z,88.5347
2023-04-18T03:05:12.705Z,88.5031
2023-04-18T03:06:13.388Z,88.5243
2023-04-18T03:07:13.766Z,88.5258
2023-04-18T03:08:14.560Z,88.5850
2023-04-18T03:09:14.939Z,88.5748
2023-04-18T03:10:15.542Z,88.7772
2023-04-18T03:11:16.087Z,88.6511
2023-04-18T03:12:16.522Z,88.4932
2023-04-18T03:13:17.108Z,88.6328
2023-04-18T03:14:17.736Z,88.8494
2023-04-18T03:15:18.122Z,88.5516
2023-04-18T03:16:18.986Z,88.4059
2023-04-18T03:17:19.744Z,88.6139
2023-04-18T03:18:20.321Z,88.7076
2023-04-18T03:19:21.059Z,88.5586
2023-04-18T03:20:21.547Z,88.4551
2023-04-18T03:21:22.144Z,88.4818
2023-04-18T03:22:22.813Z,88.6149
2023-04-18T03:23:23.314Z,88.6134
2023-04-18T03:24:23.819Z,88.5028
2023-04-18T03:25:24.183Z,88.4895
2023-04-18T03:26:24.710Z,88.7069
2023-04-18T03:27:25.258Z,88.7893
2023-04-18T03:28:25.776Z,88.8740
2023-04-18T03:29:26.409Z,88.7558
2023-04-18T03:30:27.074Z,88.7856
2023-04-18T03:31:27.767Z,88.9603
2023-04-18T03:32:28.658Z,88.9274
2023-04-18T03:33:29.309Z,88.7689
2023-04-18T03:34:29.751Z,88.8083
2023-04-18T03:35:30.430Z,88.5029
2023-04-18T03:36:30.987Z,88.5950
2023-04-18T03:37:31.523Z,88.5406
2023-04-18T03:38:32.107Z,88.4869
2023-04-18T03:39:32.545Z,88.6557
2023-04-18T03:40:33.141Z,88.8683
2023-04-18T03:41:33.682Z,88.9082
2023-04-18T03:42:34.336Z,88.9165
2023-04-18T03:43:34.991Z,88.9781
2023-04-18T03:44:36.245Z,88.9832
2023-04-18T03:45:36.825Z,88.9754
2023-04-18T03:46:38.085Z,88.9480
2023-04-18T03:47:38.997Z,88.8564
2023-04-18T03:48:40.396Z,88.5683
2023-04-18T03:50:40.259Z,88.8268
2023-04-18T03:51:40.971Z,88.9612
2023-04-18T03:52:41.371Z,88.5584
2023-04-18T03:53:41.734Z,88.5156
2023-04-18T03:54:42.886Z,88.6480
2023-04-18T03:55:43.294Z,88.8740
2023-04-18T03:56:43.978Z,88.7552
2023-04-18T03:57:44.478Z,88.6275
2023-04-18T03:58:44.906Z,88.4069
2023-04-18T03:59:47.321Z,88.6801
2023-04-18T04:00:45.772Z,88.8820
2023-04-18T04:01:46.290Z,88.7903
2023-04-18T04:02:46.812Z,88.8133
2023-04-18T04:03:47.443Z,88.8848
2023-04-18T04:04:47.505Z,88.5871
2023-04-18T04:05:48.245Z,88.6644
2023-04-18T04:06:48.945Z,88.6586
2023-04-18T04:07:49.589Z,88.5165
2023-04-18T04:08:50.145Z,88.5017
2023-04-18T04:09:50.761Z,88.4846
2023-04-18T04:10:51.184Z,88.1981
2023-04-18T04:11:51.674Z,88.3984
2023-04-18T04:12:52.282Z,88.3370
2023-04-18T04:13:52.720Z,88.2334
2023-04-18T04:14:53.930Z,88.3772
2023-04-18T04:15:54.487Z,88.4061
2023-04-18T04:16:55.307Z,88.2066
2023-04-18T04:17:56.187Z,88.4170
2023-04-18T04:18:56.949Z,88.2244
2023-04-18T04:19:57.359Z,88.3129
2023-04-18T04:20:57.939Z,88.3946
2023-04-18T04:21:58.346Z,88.4499
2023-04-18T04:22:58.948Z,88.4263
2023-04-18T04:23:59.588Z,88.6810
2023-04-18T04:25:00.304Z,88.6652
2023-04-18T04:26:00.912Z,88.6354
2023-04-18T04:27:01.557Z,88.7834
2023-04-18T04:28:02.532Z,88.5594
2023-04-18T04:29:03.201Z,88.8527
2023-04-18T04:30:03.931Z,88.6037
2023-04-18T04:31:05.025Z,88.6841
2023-04-18T04:32:05.159Z,88.7658
2023-04-18T04:33:06.129Z,88.7673
2023-04-18T04:36:07.374Z,88.7027
2023-04-18T04:37:08.144Z,88.8995
2023-04-18T04:38:08.718Z,88.7364
2023-04-18T04:39:09.454Z,88.6864
2023-04-18T04:40:10.669Z,88.7650
2023-04-18T04:41:11.593Z,88.8916
2023-04-18T04:42:12.804Z,88.9004
2023-04-18T04:43:13.888Z,88.7120
2023-04-18T04:44:14.851Z,88.7378
2023-04-18T04:45:15.429Z,88.7111
2023-04-18T04:46:16.210Z,88.7278
2023-04-18T04:47:16.801Z,88.4772
2023-04-18T04:48:17.034Z,88.5039
2023-04-18T04:49:17.935Z,88.4924
2023-04-18T04:50:18.869Z,88.5366
2023-04-18T04:51:19.674Z,88.8129
2023-04-18T04:52:20.373Z,88.8745
2023-04-18T04:53:21.000Z,88.8697
2023-04-18T04:54:21.519Z,88.8319
2023-04-18T04:55:21.985Z,88.8732
2023-04-18T04:56:22.932Z,88.7440
2023-04-18T04:57:23.615Z,88.5423
2023-04-18T04:58:24.155Z,88.4128
2023-04-18T04:59:24.792Z,88.5388
2023-04-18T05:00:25.606Z,88.4528
2023-04-18T05:01:26.423Z,88.7848
2023-04-18T05:02:26.857Z,88.6982
2023-04-18T05:03:28.747Z,88.4458
2023-04-18T05:04:29.097Z,88.4476
2023-04-18T05:05:30.202Z,88.5236
2023-04-18T05:06:30.846Z,88.6765
2023-04-18T05:07:31.836Z,88.3745
2023-04-18T05:08:32.683Z,88.7595
2023-04-18T05:09:33.267Z,88.9176
2023-04-18T05:10:33.901Z,88.9590
2023-04-18T05:11:34.585Z,88.9269
2023-04-18T05:12:35.184Z,88.8331
2023-04-18T05:13:36.160Z,88.8640
2023-04-18T05:14:36.553Z,88.9022
2023-04-18T05:15:37.463Z,88.9555
2023-04-18T05:16:37.709Z,89.0963
2023-04-18T05:17:38.745Z,89.0797
2023-04-18T05:18:39.478Z,89.1042
2023-04-18T05:19:40.340Z,88.9321
2023-04-18T05:20:41.013Z,89.0080
2023-04-18T05:21:41.731Z,88.9854
2023-04-18T05:22:43.033Z,89.1663
2023-04-18T05:23:42.859Z,88.9723
2023-04-18T05:24:43.056Z,88.8846
2023-04-18T05:25:43.713Z,88.7297
2023-04-18T05:26:44.697Z,88.7127
2023-04-18T05:27:45.946Z,88.7582
2023-04-18T05:28:46.802Z,88.7691
2023-04-18T05:29:47.579Z,88.6597
2023-04-18T05:30:48.912Z,88.6891
2023-04-18T05:31:49.906Z,88.7526
2023-04-18T05:32:50.312Z,88.6940
2023-04-18T05:33:50.334Z,88.6672
2023-04-18T05:34:51.460Z,88.6765
2023-04-18T05:35:53.496Z,88.7157
2023-04-18T05:36:53.668Z,88.7765
2023-04-18T05:37:54.476Z,88.7209
2023-04-18T05:38:55.371Z,88.7979
2023-04-18T05:39:55.938Z,88.5038
2023-04-18T05:40:56.290Z,88.3750
2023-04-18T05:41:56.724Z,88.3969
2023-04-18T05:42:57.911Z,88.4490
2023-04-18T05:44:05.261Z,88.5902
2023-04-18T05:45:02.438Z,88.6035
2023-04-18T05:48:04.054Z,88.4087
2023-04-18T05:49:04.813Z,88.5259
2023-04-18T05:50:05.567Z,88.6843
2023-04-18T05:51:06.487Z,88.6526
2023-04-18T05:52:07.678Z,88.4635
2023-04-18T05:53:08.531Z,88.5650
2023-04-18T05:54:09.151Z,88.6778
2023-04-18T05:55:09.147Z,88.5080
2023-04-18T05:56:09.647Z,88.5252
2023-04-18T05:57:10.696Z,88.4110
2023-04-18T05:58:11.356Z,88.2309
2023-04-18T05:59:11.957Z,88.2268
2023-04-18T06:00:12.666Z,88.1104
2023-04-18T06:01:13.889Z,88.2381
2023-04-18T06:02:14.722Z,88.1852
2023-04-18T06:03:16.047Z,88.1333
2023-04-18T06:04:16.809Z,88.2778
2023-04-18T06:05:17.253Z,88.0000
2023-04-18T06:06:17.934Z,87.8535
2023-04-18T06:07:18.386Z,87.9930
2023-04-18T06:08:19.212Z,87.8962
2023-04-18T06:09:19.852Z,88.0612
2023-04-18T06:10:20.556Z,88.1965
2023-04-18T06:11:21.403Z,88.1493
2023-04-18T06:12:22.324Z,88.1435
2023-04-18T06:13:22.993Z,87.8625
2023-04-18T06:14:23.828Z,87.9900
2023-04-18T06:15:25.050Z,88.0348
2023-04-18T06:16:25.974Z,87.8621
2023-04-18T06:17:25.972Z,87.8872
2023-04-18T06:18:26.915Z,87.9164
2023-04-18T06:19:27.100Z,87.9677
2023-04-18T06:20:28.323Z,87.7303
2023-04-18T06:21:28.897Z,87.8796
2023-04-18T06:22:29.982Z,88.0241
2023-04-18T06:23:30.609Z,88.0215
2023-04-18T06:24:31.357Z,88.0568
2023-04-18T06:25:31.005Z,87.9421
2023-04-18T06:26:31.502Z,87.6599
2023-04-18T06:27:34.535Z,87.2939
2023-04-18T06:28:35.388Z,87.2527
2023-04-18T06:29:36.855Z,87.4739
2023-04-18T06:30:36.220Z,87.2264
2023-04-18T06:31:37.082Z,87.5163
2023-04-18T06:32:37.932Z,87.6307
2023-04-18T06:33:38.618Z,87.5079
2023-04-18T06:34:39.866Z,87.7959
2023-04-18T06:35:40.505Z,87.5979
2023-04-18T06:36:41.153Z,87.3639
2023-04-18T06:37:41.389Z,87.5470
2023-04-18T06:38:42.077Z,87.5053
2023-04-18T06:39:42.772Z,87.3035
2023-04-18T06:40:43.518Z,87.2408
2023-04-18T06:41:44.265Z,87.0701
2023-04-18T06:42:44.756Z,86.8759
2023-04-18T06:44:01.572Z,86.7032
2023-04-18T06:44:46.870Z,86.5600
2023-04-18T06:45:47.602Z,86.7624
2023-04-18T06:46:47.677Z,87.0959
2023-04-18T06:47:48.725Z,87.1273
2023-04-18T06:48:50.434Z,87.3939
2023-04-18T06:49:49.849Z,87.2027
2023-04-18T06:50:50.594Z,86.7993
2023-04-18T06:51:51.220Z,86.6448
2023-04-18T06:52:51.798Z,86.7863
2023-04-18T06:53:52.578Z,86.7726
2023-04-18T06:54:53.379Z,86.5443
2023-04-18T06:55:54.132Z,86.6911
2023-04-18T06:56:55.303Z,86.6446
2023-04-18T06:57:56.516Z,86.8126
2023-04-18T06:58:57.321Z,86.7551
2023-04-18T06:59:58.553Z,86.8146
2023-04-18T07:00:59.191Z,86.6401
2023-04-18T07:02:00.129Z,86.6656
2023-04-18T07:03:00.733Z,86.5826
2023-04-18T07:04:00.928Z,86.6914
2023-04-18T07:05:01.336Z,86.7465
2023-04-18T07:06:01.887Z,86.6786
2023-04-18T07:07:02.691Z,87.0033
2023-04-18T07:08:03.351Z,86.9648
2023-04-18T07:09:04.107Z,86.9320
2023-04-18T07:10:04.679Z,87.0459
2023-04-18T07:11:04.699Z,86.9399
2023-04-18T07:12:05.200Z,86.7727
2023-04-18T07:13:05.751Z,86.9681
2023-04-18T07:14:06.656Z,86.4933
2023-04-18T07:15:07.717Z,86.4827
2023-04-18T07:16:08.377Z,86.2095
2023-04-18T07:17:09.054Z,86.2926
2023-04-18T07:18:10.036Z,86.1805
2023-04-18T07:19:10.939Z,85.7568
2023-04-18T07:20:12.987Z,85.7980
2023-04-18T07:21:12.436Z,85.7110
2023-04-18T07:22:13.100Z,85.4959
2023-04-18T07:23:13.597Z,85.4253
2023-04-18T07:24:14.509Z,85.6431
2023-04-18T07:25:15.385Z,85.4323
2023-04-18T07:26:15.619Z,85.0462
2023-04-18T07:27:16.353Z,85.3028
2023-04-18T07:28:17.208Z,85.5322
2023-04-18T07:29:17.675Z,85.4546
2023-04-18T07:30:18.470Z,85.1660
2023-04-18T07:31:19.331Z,84.9132
2023-04-18T07:32:20.080Z,85.1373
2023-04-18T07:33:20.895Z,84.8568
2023-04-18T07:34:21.497Z,85.0942
2023-04-18T07:35:22.119Z,84.6879
2023-04-18T07:36:22.889Z,84.8743
2023-04-18T07:37:23.549Z,84.7053
2023-04-18T07:38:24.191Z,84.4633
2023-04-18T07:39:24.818Z,84.2406
2023-04-18T07:40:25.305Z,84.3171
2023-04-18T07:41:26.032Z,84.7243
2023-04-18T07:42:26.551Z,84.6072
2023-04-18T07:43:26.689Z,84.4874
2023-04-18T07:44:26.864Z,84.4889
2023-04-18T07:45:27.257Z,84.5382
2023-04-18T07:46:27.606Z,84.2834
2023-04-18T07:47:32.242Z,84.5948
2023-04-18T07:48:31.432Z,84.4869
2023-04-18T07:49:32.530Z,84.6959
2023-04-18T07:50:33.251Z,84.4402
2023-04-18T07:51:33.673Z,84.3949
2023-04-18T07:52:34.628Z,84.2136
2023-04-18T07:53:35.275Z,84.3194
2023-04-18T07:54:35.728Z,84.0599
2023-04-18T07:55:36.322Z,83.5052
2023-04-18T07:56:36.785Z,83.4464
2023-04-18T07:57:37.478Z,83.4967
2023-04-18T07:58:38.148Z,83.6527
2023-04-18T07:59:39.316Z,83.3690
2023-04-18T08:00:39.377Z,83.3447
2023-04-18T08:01:39.996Z,82.9872
2023-04-18T08:02:41.328Z,82.7785
2023-04-18T08:03:41.267Z,82.1730
2023-04-18T08:04:41.884Z,81.7294
2023-04-18T08:05:43.021Z,81.8790
2023-04-18T08:06:43.849Z,81.5294
2023-04-18T08:07:44.798Z,81.5317
2023-04-18T08:08:45.609Z,81.3368
2023-04-18T08:09:46.771Z,81.4334
2023-04-18T08:10:47.185Z,81.2160
2023-04-18T08:11:47.874Z,80.5350
2023-04-18T08:12:48.606Z,80.3379
2023-04-18T08:13:49.318Z,80.2256
2023-04-18T08:14:50.235Z,79.8907
2023-04-18T08:15:50.966Z,80.2923
2023-04-18T08:16:51.804Z,79.7911
2023-04-18T08:17:52.388Z,79.8347
2023-04-18T08:18:53.093Z,80.1323
2023-04-18T08:19:53.703Z,79.8156
2023-04-18T08:20:54.198Z,80.0580
2023-04-18T08:21:54.887Z,79.3736
2023-04-18T08:23:06.135Z,79.3986
2023-04-18T08:24:01.983Z,80.1925
2023-04-18T08:25:05.547Z,79.7671
2023-04-18T08:26:03.792Z,79.6971
2023-04-18T08:27:04.186Z,79.9093
2023-04-18T08:28:04.882Z,79.7410
2023-04-18T08:29:05.046Z,79.8423
2023-04-18T08:30:05.868Z,80.2889
2023-04-18T08:31:06.580Z,80.8703
2023-04-18T08:32:07.484Z,81.2667
2023-04-18T08:33:08.635Z,81.2057
2023-04-18T08:34:09.271Z,81.3342
2023-04-18T08:35:09.938Z,81.3788
2023-04-18T08:36:10.559Z,81.5404
2023-04-18T08:37:11.077Z,81.5171
2023-04-18T08:38:11.524Z,81.6492
2023-04-18T08:39:12.212Z,81.4782
2023-04-18T08:40:13.283Z,80.9780
2023-04-18T08:41:13.773Z,81.0404
2023-04-18T08:42:14.485Z,80.4773
2023-04-18T08:43:14.994Z,80.3459
2023-04-18T08:44:15.741Z,80.1908
2023-04-18T08:45:16.723Z,80.5027
2023-04-18T08:46:16.973Z,79.8836
2023-04-18T08:47:18.050Z,79.8310
2023-04-18T08:48:19.102Z,79.7884
2023-04-18T08:49:20.173Z,79.5668
2023-04-18T08:50:20.375Z,79.4364
2023-04-18T08:51:20.450Z,79.0476
2023-04-18T08:52:21.023Z,78.7822
2023-04-18T08:53:21.936Z,78.8837
2023-04-18T08:54:22.483Z,78.0072
2023-04-18T08:55:23.357Z,78.5577
2023-04-18T08:56:23.959Z,78.1009
2023-04-18T08:57:24.502Z,78.5245
2023-04-18T08:58:25.409Z,78.1024
2023-04-18T08:59:26.501Z,78.5619
2023-04-18T09:00:27.587Z,79.0670
2023-04-18T09:01:28.382Z,79.0022
2023-04-18T09:02:29.345Z,78.7320
2023-04-18T09:03:29.938Z,78.8800
2023-04-18T09:04:30.826Z,78.7034
2023-04-18T09:05:32.110Z,78.8094
2023-04-18T09:06:32.238Z,78.7909
2023-04-18T09:07:32.953Z,78.7152
2023-04-18T09:08:34.221Z,79.0142
2023-04-18T09:09:35.008Z,79.2731
2023-04-18T09:10:36.787Z,78.5563
2023-04-18T09:11:36.548Z,78.2542
2023-04-18T09:12:37.255Z,77.8508
2023-04-18T09:13:38.439Z,77.9804
2023-04-18T09:14:38.916Z,77.3499
2023-04-18T09:15:39.631Z,77.4613
2023-04-18T09:16:40.783Z,77.4305
2023-04-18T09:17:41.597Z,77.0516
2023-04-18T09:18:42.348Z,77.2163
2023-04-18T09:19:42.752Z,76.8498
2023-04-18T09:20:43.355Z,76.7899
2023-04-18T09:21:44.008Z,76.8998
2023-04-18T09:22:44.844Z,76.7794
2023-04-18T09:23:45.546Z,77.1367
2023-04-18T09:24:46.796Z,77.2804
2023-04-18T09:25:47.797Z,77.1995
2023-04-18T09:26:48.547Z,77.0223
2023-04-18T09:27:48.912Z,76.8286
2023-04-18T09:28:51.219Z,76.8077
2023-04-18T09:29:50.129Z,76.5879
2023-04-18T09:30:50.747Z,76.4125
2023-04-18T09:31:51.693Z,76.1632
2023-04-18T09:32:52.227Z,76.3651
2023-04-18T09:33:53.221Z,76.5140
2023-04-18T09:34:53.908Z,76.0734
2023-04-18T09:35:54.850Z,75.3124
2023-04-18T09:36:55.805Z,75.3614
2023-04-18T09:37:56.857Z,75.6674
2023-04-18T09:38:57.529Z,76.2490
2023-04-18T09:39:58.302Z,76.7154
2023-04-18T09:40:59.080Z,77.0667
2023-04-18T09:41:59.414Z,76.7660
2023-04-18T09:43:00.180Z,76.4185
2023-04-18T09:44:00.682Z,76.6663
2023-04-18T09:45:01.373Z,75.8133
2023-04-18T09:46:02.424Z,75.0626
2023-04-18T09:47:03.195Z,75.4423
2023-04-18T09:48:03.916Z,75.7703
2023-04-18T09:49:04.614Z,75.6177
2023-04-18T09:50:05.922Z,75.5077
2023-04-18T09:51:06.446Z,75.6848
2023-04-18T09:52:07.079Z,76.2136
2023-04-18T09:53:07.477Z,76.8356
2023-04-18T09:54:08.462Z,76.4362
2023-04-18T09:55:08.718Z,76.3738
2023-04-18T09:56:09.408Z,75.8264
2023-04-18T09:57:10.353Z,75.8155
2023-04-18T09:58:10.899Z,75.5054
2023-04-18T09:59:11.590Z,74.5578
2023-04-18T10:00:12.406Z,74.8452
2023-04-18T10:01:12.494Z,74.4470
2023-04-18T10:02:13.761Z,74.1653
2023-04-18T10:03:14.846Z,74.1708
2023-04-18T10:04:15.725Z,73.9277
2023-04-18T10:05:17.244Z,73.5780
2023-04-18T10:06:16.407Z,73.6125
2023-04-18T10:07:17.025Z,74.0584
2023-04-18T10:08:17.592Z,73.8197
2023-04-18T10:09:18.014Z,74.1656
2023-04-18T10:10:18.644Z,74.3071
2023-04-18T10:11:20.320Z,73.8180
2023-04-18T10:12:19.890Z,73.6721
2023-04-18T10:13:20.641Z,73.4582
2023-04-18T10:14:21.836Z,73.4900
2023-04-18T10:15:22.476Z,73.2423
2023-04-18T10:16:23.459Z,72.6203
2023-04-18T10:17:23.481Z,72.3967
2023-04-18T10:18:24.609Z,72.4285
2023-04-18T10:19:24.534Z,73.3712
2023-04-18T10:20:25.101Z,73.4339
2023-04-18T10:21:25.639Z,73.4123
2023-04-18T10:22:26.218Z,72.8470
2023-04-18T10:23:28.095Z,72.4741
2023-04-18T10:24:27.512Z,71.6337
2023-04-18T10:25:28.045Z,71.6911
2023-04-18T10:26:28.693Z,71.4359
2023-04-18T10:27:29.346Z,72.1903
2023-04-18T10:28:29.840Z,72.5880
2023-04-18T10:29:30.805Z,72.5730
2023-04-18T10:30:31.218Z,73.3080
2023-04-18T10:31:32.250Z,73.3297
2023-04-18T10:32:32.902Z,73.3890
2023-04-18T10:33:33.669Z,73.6469
2023-04-18T10:34:33.463Z,73.6770
2023-04-18T10:35:33.486Z,74.1343
2023-04-18T10:36:34.972Z,74.1037
2023-04-18T10:38:34.758Z,74.1404
2023-04-18T10:39:35.326Z,74.6631
2023-04-18T10:40:36.093Z,74.3070
2023-04-18T10:41:36.048Z,74.2398
2023-04-18T10:43:00.314Z,73.7962
2023-04-18T10:44:00.553Z,73.9862
2023-04-18T10:45:01.093Z,74.3103
2023-04-18T10:46:01.754Z,74.2179
2023-04-18T10:47:02.680Z,73.7598
2023-04-18T10:48:03.062Z,73.5456
2023-04-18T10:49:03.219Z,73.3625
2023-04-18T10:50:08.431Z,73.0416
2023-04-18T10:51:09.113Z,72.6878
2023-04-18T10:52:11.766Z,72.9991
2023-04-18T10:53:10.501Z,72.6733
2023-04-18T10:54:11.030Z,73.0215
2023-04-18T10:55:12.266Z,72.9828
2023-04-18T10:56:12.938Z,72.7184
2023-04-18T10:57:13.500Z,72.5894
2023-04-18T10:58:14.177Z,72.7637
2023-04-18T10:59:14.720Z,72.7833
2023-04-18T11:00:15.336Z,72.7969
2023-04-18T11:01:16.508Z,72.3617
2023-04-18T11:02:17.603Z,72.1709
2023-04-18T11:03:17.709Z,71.4000
2023-04-18T11:04:18.092Z,70.7650
2023-04-18T11:05:17.953Z,71.9058
2023-04-18T11:06:18.691Z,70.8154
2023-04-18T11:07:19.181Z,70.0704
2023-04-18T11:08:19.848Z,69.5174
2023-04-18T11:09:20.429Z,70.1081
2023-04-18T11:10:21.025Z,70.3252
2023-04-18T11:11:22.244Z,70.9303
2023-04-18T11:12:22.776Z,71.2919
2023-04-18T11:13:22.822Z,71.4021
2023-04-18T11:14:23.601Z,71.8844
2023-04-18T11:15:24.430Z,72.4823
2023-04-18T11:16:25.177Z,72.2983
2023-04-18T11:17:26.241Z,72.3351
2023-04-18T11:18:26.283Z,72.0007
2023-04-18T11:19:27.093Z,71.3340
2023-04-18T11:20:28.255Z,71.2499
2023-04-18T11:21:30.463Z,71.1102
2023-04-18T11:22:29.087Z,70.6876
2023-04-18T11:23:30.062Z,70.6498
2023-04-18T11:24:30.015Z,70.2071
2023-04-18T11:25:30.710Z,69.6983
2023-04-18T11:26:31.384Z,69.7799
2023-04-18T11:27:31.585Z,69.7301
2023-04-18T11:28:32.468Z,70.7183
2023-04-18T11:29:33.174Z,70.8561
2023-04-18T11:30:33.957Z,70.2462
2023-04-18T11:31:34.962Z,70.2098
2023-04-18T11:32:35.011Z,70.6233
2023-04-18T11:33:35.795Z,71.3980
2023-04-18T11:34:36.541Z,71.6936
2023-04-18T11:35:37.296Z,71.7691
2023-04-18T11:36:37.735Z,71.2939
2023-04-18T11:37:38.487Z,70.8176
2023-04-18T11:38:39.288Z,70.8779
2023-04-18T11:39:39.850Z,70.1468
2023-04-18T11:40:40.650Z,70.2306
2023-04-18T11:41:41.057Z,69.5825
2023-04-18T11:42:41.810Z,69.3329
2023-04-18T11:43:42.530Z,67.7922
2023-04-18T11:44:43.329Z,67.1451
2023-04-18T11:45:43.967Z,67.2932
2023-04-18T11:46:45.035Z,66.9945
2023-04-18T11:47:45.606Z,66.7214
2023-04-18T11:48:46.248Z,66.5964
2023-04-18T11:49:47.362Z,65.1256
2023-04-18T11:50:48.629Z,64.5350
2023-04-18T11:51:49.880Z,64.2495
2023-04-18T11:52:51.139Z,63.7462
2023-04-18T11:53:52.225Z,64.1327
2023-04-18T11:54:52.823Z,64.1879
2023-04-18T11:55:53.394Z,64.1094
2023-04-18T11:56:54.297Z,63.5008
2023-04-18T11:57:55.005Z,63.3321
2023-04-18T11:58:56.171Z,63.3279
2023-04-18T11:59:57.043Z,61.3072
2023-04-18T12:00:57.256Z,62.3173
2023-04-18T12:01:58.904Z,63.2830
2023-04-18T12:02:58.426Z,64.5451
2023-04-18T12:05:59.406Z,62.7688
2023-04-18T12:06:59.531Z,62.7012
2023-04-18T12:08:00.502Z,61.6887
2023-04-18T12:09:00.940Z,61.9914
2023-04-18T12:10:01.838Z,60.9626
2023-04-18T12:11:02.902Z,59.4938
2023-04-18T12:12:03.693Z,59.2678
2023-04-18T12:13:04.633Z,60.0189
2023-04-18T12:14:05.882Z,59.3741
2023-04-18T12:15:06.410Z,60.1179
2023-04-18T12:16:06.210Z,60.6737
2023-04-18T12:17:06.987Z,61.4543
2023-04-18T12:18:07.100Z,61.9697
2023-04-18T12:19:07.902Z,62.1655
2023-04-18T12:20:09.051Z,62.4751
2023-04-18T12:21:09.542Z,61.8332
2023-04-18T12:22:09.692Z,61.9631